createdAt,value
2022-08-05T00:01:35.603Z,6.30
2022-08-05T00:04:08.298Z,6.90
2022-08-05T00:06:37.103Z,7.10
2022-08-05T00:09:12.875Z,6.00
2022-08-05T00:11:49.017Z,6.30
2022-08-05T00:14:27.546Z,6.80
2022-08-05T00:16:57.821Z,6.10
2022-08-05T00:19:33.216Z,6.10
2022-08-05T00:22:11.471Z,6.30
2022-08-05T00:24:42.352Z,7.00
2022-08-05T00:27:28.583Z,5.70
2022-08-05T00:30:00.572Z,5.70
2022-08-05T00:32:31.847Z,7.20
2022-08-05T00:35:07.593Z,6.40
2022-08-05T00:37:52.708Z,7.00
2022-08-05T00:40:28.190Z,6.80
2022-08-05T00:43:00.109Z,6.70
2022-08-05T00:45:42.812Z,6.50
2022-08-05T00:48:15.774Z,7.00
2022-08-05T00:50:46.630Z,6.40
2022-08-05T00:54:01.242Z,6.60
2022-08-05T00:56:07.963Z,6.70
2022-08-05T00:58:37.169Z,7.20
2022-08-05T01:01:08.837Z,7.40
2022-08-05T01:03:39.741Z,7.60
2022-08-05T01:06:11.159Z,7.00
2022-08-05T01:08:44.210Z,7.40
2022-08-05T01:11:33.272Z,7.10
2022-08-05T01:14:16.993Z,8.50
2022-08-05T01:17:16.477Z,8.00
2022-08-05T01:20:18.347Z,8.30
2022-08-05T01:23:15.066Z,7.60
2022-08-05T01:26:13.048Z,7.40
2022-08-05T01:29:00.573Z,7.20
2022-08-05T01:31:44.518Z,8.30
2022-08-05T01:34:22.643Z,8.60
2022-08-05T01:37:03.067Z,8.40
2022-08-05T01:39:46.728Z,9.00
2022-08-05T01:42:19.605Z,9.20
2022-08-05T01:44:54.109Z,8.80
2022-08-05T01:47:38.644Z,8.50
2022-08-05T01:50:16.056Z,8.80
2022-08-05T01:52:49.619Z,8.80
2022-08-05T01:55:21.434Z,8.00
2022-08-05T01:58:10.466Z,8.40
2022-08-05T02:00:47.485Z,8.40
2022-08-05T02:03:31.247Z,8.30
2022-08-05T02:06:03.539Z,8.10
2022-08-05T02:08:58.627Z,7.20
2022-08-05T02:11:47.039Z,7.40
2022-08-05T02:14:26.983Z,8.00
2022-08-05T02:17:00.925Z,7.80
2022-08-05T02:19:47.683Z,8.90
2022-08-05T02:22:26.381Z,8.00
2022-08-05T02:25:06.595Z,7.70
2022-08-05T02:27:58.883Z,7.60
2022-08-05T02:30:35.603Z,8.00
2022-08-05T02:33:07.168Z,8.30
2022-08-05T02:35:44.963Z,7.30
2022-08-05T02:38:35.142Z,7.60
2022-08-05T02:41:06.458Z,8.30
2022-08-05T02:44:02.307Z,7.60
2022-08-05T02:46:43.839Z,7.60
2022-08-05T02:49:23.458Z,8.20
2022-08-05T02:52:02.658Z,8.60
2022-08-05T02:54:37.014Z,8.50
2022-08-05T02:58:11.717Z,9.00
2022-08-05T02:59:59.486Z,8.20
2022-08-05T03:02:37.144Z,8.00
2022-08-05T03:05:09.849Z,8.40
2022-08-05T03:08:00.505Z,7.40
2022-08-05T03:10:29.009Z,8.50
2022-08-05T03:15:24.661Z,8.00
2022-08-05T03:17:57.879Z,8.20
2022-08-05T03:20:27.752Z,8.40
2022-08-05T03:22:57.237Z,9.30
2022-08-05T03:25:32.377Z,7.40
2022-08-05T03:28:05.334Z,9.00
2022-08-05T03:30:34.583Z,7.50
2022-08-05T03:33:05.789Z,8.00
2022-08-05T03:35:40.544Z,8.00
2022-08-05T03:38:14.407Z,7.50
2022-08-05T03:40:45.176Z,8.60
2022-08-05T03:44:08.533Z,8.60
2022-08-05T03:46:05.669Z,8.70
2022-08-05T03:48:36.890Z,8.00
2022-08-05T03:52:37.866Z,8.60
2022-08-05T03:55:54.776Z,8.10
2022-08-05T03:57:16.018Z,8.10
2022-08-05T03:59:54.841Z,7.00
2022-08-05T04:02:37.565Z,8.60
2022-08-05T04:05:09.930Z,8.10
2022-08-05T04:07:57.362Z,7.80
2022-08-05T04:10:32.118Z,7.70
2022-08-05T04:13:08.296Z,8.20
2022-08-05T04:15:36.931Z,7.60
2022-08-05T04:18:07.368Z,8.40
2022-08-05T04:20:37.956Z,8.40
2022-08-05T04:23:12.693Z,7.90
2022-08-05T04:25:57.077Z,7.60
2022-08-05T04:28:30.842Z,7.10
2022-08-05T04:31:01.437Z,7.40
2022-08-05T04:34:19.302Z,7.60
2022-08-05T04:36:45.812Z,7.20
2022-08-05T04:39:07.474Z,7.60
2022-08-05T04:41:36.850Z,8.20
2022-08-05T04:44:09.357Z,7.20
2022-08-05T04:46:38.913Z,7.90
2022-08-05T04:49:14.686Z,8.00
2022-08-05T04:51:44.247Z,7.00
2022-08-05T04:54:14.856Z,7.10
2022-08-05T04:56:43.615Z,6.90
2022-08-05T04:59:22.461Z,7.60
2022-08-05T05:02:36.201Z,6.70
2022-08-05T05:04:50.489Z,6.90
2022-08-05T05:07:29.226Z,7.10
2022-08-05T05:09:58.241Z,7.80
2022-08-05T05:12:27.246Z,7.20
2022-08-05T05:14:56.184Z,6.70
2022-08-05T05:17:56.485Z,7.10
2022-08-05T05:20:14.577Z,7.10
2022-08-05T05:22:44.142Z,7.20
2022-08-05T05:25:17.101Z,6.30
2022-08-05T05:27:48.628Z,6.80
2022-08-05T05:30:30.674Z,6.40
2022-08-05T05:33:16.455Z,7.10
2022-08-05T05:35:47.468Z,7.40
2022-08-05T05:38:22.736Z,6.60
2022-08-05T05:40:56.912Z,6.50
2022-08-05T05:43:54.443Z,6.30
2022-08-05T05:46:17.648Z,6.60
2022-08-05T05:48:48.833Z,6.60
2022-08-05T05:51:28.013Z,6.00
2022-08-05T05:53:59.759Z,7.00
2022-08-05T05:56:34.403Z,5.80
2022-08-05T05:59:06.712Z,5.70
2022-08-05T06:01:57.176Z,5.90
2022-08-05T06:04:26.569Z,5.50
2022-08-05T06:06:54.990Z,5.50
2022-08-05T06:09:50.191Z,5.80
2022-08-05T06:12:18.253Z,6.00
2022-08-05T06:14:47.970Z,6.00
2022-08-05T06:17:22.076Z,5.70
2022-08-05T06:19:56.588Z,6.20
2022-08-05T06:22:33.683Z,5.40
2022-08-05T06:25:24.692Z,5.70
2022-08-05T06:28:10.412Z,5.40
2022-08-05T06:30:41.327Z,5.40
2022-08-05T06:33:10.733Z,5.80
2022-08-05T06:36:06.972Z,5.70
2022-08-05T06:38:36.437Z,4.80
2022-08-05T06:41:08.214Z,5.80
2022-08-05T06:43:57.714Z,5.30
2022-08-05T06:46:29.841Z,5.30
2022-08-05T06:49:01.809Z,5.50
2022-08-05T06:51:33.962Z,5.00
2022-08-05T06:54:05.049Z,5.40
2022-08-05T06:56:34.964Z,5.70
2022-08-05T06:59:09.415Z,5.40
2022-08-05T07:01:40.762Z,5.80
2022-08-05T07:04:10.836Z,5.40
2022-08-05T07:06:42.979Z,5.80
2022-08-05T07:09:11.355Z,5.00
2022-08-05T07:11:45.509Z,5.50
2022-08-05T07:14:36.854Z,5.10
2022-08-05T07:18:01.615Z,5.40
2022-08-05T07:20:30.953Z,5.10
2022-08-05T07:22:43.597Z,5.10
2022-08-05T07:25:23.553Z,5.10
2022-08-05T07:28:05.797Z,5.60
2022-08-05T07:30:38.276Z,5.70
2022-08-05T07:33:15.581Z,5.40
2022-08-05T07:36:03.458Z,6.00
2022-08-05T07:38:42.683Z,5.30
2022-08-05T07:42:07.970Z,5.10
2022-08-05T07:44:14.206Z,4.60
2022-08-05T07:46:49.807Z,5.60
2022-08-05T07:49:20.693Z,5.70
2022-08-05T07:51:53.777Z,5.40
2022-08-05T07:54:31.189Z,4.80
2022-08-05T07:57:23.649Z,5.50
2022-08-05T07:59:53.991Z,5.80
2022-08-05T08:02:30.622Z,5.00
2022-08-05T08:05:01.183Z,4.40
2022-08-05T08:07:39.780Z,4.80
2022-08-05T08:10:20.630Z,4.10
2022-08-05T08:12:50.299Z,4.70
2022-08-05T08:15:37.353Z,4.40
2022-08-05T08:18:13.859Z,4.30
2022-08-05T08:21:02.179Z,4.40
2022-08-05T08:24:01.192Z,4.50
2022-08-05T08:26:26.915Z,4.20
2022-08-05T08:29:09.755Z,4.60
2022-08-05T08:31:50.436Z,4.60
2022-08-05T08:34:30.684Z,4.80
2022-08-05T08:37:04.696Z,6.20
2022-08-05T08:39:37.703Z,4.60
2022-08-05T08:42:50.311Z,4.70
2022-08-05T08:45:18.981Z,4.30
2022-08-05T08:48:10.755Z,5.00
2022-08-05T08:51:03.933Z,15.60
2022-08-05T08:53:36.863Z,6.20
2022-08-05T08:56:06.602Z,4.90
2022-08-05T08:58:36.956Z,4.40
2022-08-05T09:01:11.067Z,4.20
2022-08-05T09:03:55.387Z,3.80
2022-08-05T09:06:29.742Z,4.60
2022-08-05T09:09:01.474Z,4.00
2022-08-05T09:11:51.549Z,4.30
2022-08-05T09:14:56.899Z,4.50
2022-08-05T09:17:40.053Z,4.20
2022-08-05T09:20:05.820Z,4.30
2022-08-05T09:23:07.870Z,4.50
2022-08-05T09:26:02.122Z,4.10
2022-08-05T09:31:43.405Z,4.50
2022-08-05T09:34:01.444Z,4.10
2022-08-05T09:36:56.278Z,4.10
2022-08-05T09:39:41.770Z,3.90
2022-08-05T09:42:24.151Z,4.10
2022-08-05T09:46:05.070Z,4.10
2022-08-05T09:47:56.321Z,3.80
2022-08-05T09:50:44.096Z,3.80
2022-08-05T09:53:22.975Z,4.00
2022-08-05T09:56:03.930Z,3.70
2022-08-05T09:58:33.333Z,3.90
2022-08-05T10:01:15.164Z,3.80
2022-08-05T10:04:10.701Z,3.60
2022-08-05T10:06:41.207Z,4.00
2022-08-05T10:09:27.418Z,3.50
2022-08-05T10:12:18.933Z,4.00
2022-08-05T10:15:17.266Z,3.70
2022-08-05T10:18:22.705Z,3.70
2022-08-05T10:21:08.511Z,3.70
2022-08-05T10:23:59.899Z,3.60
2022-08-05T10:26:32.328Z,3.90
2022-08-05T10:29:02.678Z,3.90
2022-08-05T10:32:53.842Z,3.70
2022-08-05T10:34:25.932Z,3.80
2022-08-05T10:36:59.853Z,3.80
2022-08-05T10:39:59.075Z,3.50
2022-08-05T10:42:34.257Z,3.00
2022-08-05T10:45:20.826Z,3.70
2022-08-05T10:48:30.159Z,3.40
2022-08-05T10:51:21.815Z,3.40
2022-08-05T10:53:51.098Z,3.40
2022-08-05T10:56:30.293Z,4.00
2022-08-05T10:59:12.426Z,3.50
2022-08-05T11:02:04.821Z,3.70
2022-08-05T11:04:47.359Z,3.60
2022-08-05T11:07:18.649Z,3.90
2022-08-05T11:10:10.048Z,3.90
2022-08-05T11:12:42.255Z,3.70
2022-08-05T11:15:20.125Z,3.50
2022-08-05T11:17:58.089Z,3.40
2022-08-05T11:20:39.192Z,3.60
2022-08-05T11:24:05.632Z,3.70
2022-08-05T11:26:32.414Z,3.30
2022-08-05T11:29:11.631Z,4.10
2022-08-05T11:31:58.826Z,3.60
2022-08-05T11:34:51.607Z,4.00
2022-08-05T11:38:29.891Z,3.80
2022-08-05T11:41:34.503Z,3.60
2022-08-05T11:44:08.317Z,3.70
2022-08-05T11:47:09.937Z,3.30
2022-08-05T11:49:29.391Z,3.30
2022-08-05T11:52:11.391Z,3.40
2022-08-05T11:54:41.297Z,4.10
2022-08-05T11:57:25.331Z,3.00
2022-08-05T11:59:54.971Z,3.40
2022-08-05T12:02:31.240Z,3.40
2022-08-05T12:05:06.804Z,3.40
2022-08-05T12:08:03.553Z,3.70
2022-08-05T12:10:43.567Z,3.70
2022-08-05T12:13:27.822Z,3.90
2022-08-05T12:16:15.490Z,3.90
2022-08-05T12:18:49.623Z,3.50
2022-08-05T12:21:31.879Z,3.50
2022-08-05T12:24:27.235Z,3.60
2022-08-05T12:26:56.748Z,3.10
2022-08-05T12:29:27.198Z,3.40
2022-08-05T12:31:57.955Z,3.40
2022-08-05T12:34:37.190Z,3.30
2022-08-05T12:37:30.136Z,3.30
2022-08-05T12:40:03.706Z,3.80
2022-08-05T12:42:39.894Z,2.90
2022-08-05T12:45:11.331Z,3.60
2022-08-05T12:48:01.093Z,3.60
2022-08-05T12:50:30.973Z,3.90
2022-08-05T12:53:02.462Z,3.70
2022-08-05T12:55:32.495Z,3.70
2022-08-05T12:58:49.558Z,3.30
2022-08-05T13:02:01.518Z,3.60
2022-08-05T13:03:42.448Z,3.20
2022-08-05T13:06:18.199Z,3.60
2022-08-05T13:08:52.245Z,3.10
2022-08-05T13:11:57.933Z,3.70
2022-08-05T13:14:24.979Z,3.40
2022-08-05T13:17:25.111Z,3.50
2022-08-05T13:20:05.517Z,3.40
2022-08-05T13:22:36.354Z,3.40
2022-08-05T13:25:19.170Z,2.70
2022-08-05T13:27:52.779Z,3.30
2022-08-05T13:30:34.570Z,3.50
2022-08-05T13:33:05.484Z,3.30
2022-08-05T13:35:47.210Z,3.10
2022-08-05T13:38:34.180Z,3.90
2022-08-05T13:41:05.186Z,4.10
2022-08-05T13:43:44.737Z,3.50
2022-08-05T13:46:50.916Z,3.30
2022-08-05T13:49:12.988Z,3.20
2022-08-05T13:51:46.199Z,3.20
2022-08-05T13:54:21.118Z,3.20
2022-08-05T13:56:53.958Z,3.50
2022-08-05T13:59:24.914Z,3.20
2022-08-05T14:02:00.098Z,3.20
2022-08-05T14:04:51.061Z,3.50
2022-08-05T14:07:56.979Z,3.30
2022-08-05T14:10:28.442Z,3.50
2022-08-05T14:12:57.821Z,3.30
2022-08-05T14:16:08.520Z,3.20
2022-08-05T14:18:18.274Z,2.90
2022-08-05T14:20:48.366Z,3.60
2022-08-05T14:23:24.902Z,3.70
2022-08-05T14:25:59.017Z,3.80
2022-08-05T14:28:29.699Z,3.40
2022-08-05T14:31:01.365Z,3.70
2022-08-05T14:33:32.490Z,3.90
2022-08-05T14:36:21.256Z,4.10
2022-08-05T14:38:51.417Z,3.50
2022-08-05T14:41:20.505Z,3.50
2022-08-05T14:44:01.539Z,3.70
2022-08-05T14:46:35.248Z,3.60
2022-08-05T14:49:07.607Z,3.30
2022-08-05T14:51:42.830Z,3.80
2022-08-05T14:54:29.816Z,3.50
2022-08-05T14:56:59.398Z,3.80
2022-08-05T14:59:29.176Z,3.80
2022-08-05T15:01:58.358Z,4.10
2022-08-05T15:04:29.023Z,3.70
2022-08-05T15:06:57.817Z,4.30
2022-08-05T15:09:52.428Z,3.90
2022-08-05T15:12:16.757Z,4.00
2022-08-05T15:14:50.465Z,3.80
2022-08-05T15:20:18.558Z,3.90
2022-08-05T15:22:53.961Z,3.90
2022-08-05T15:25:52.772Z,4.00
2022-08-05T15:28:15.783Z,3.80
2022-08-05T15:30:46.420Z,3.70
2022-08-05T15:33:56.734Z,3.90
2022-08-05T15:36:05.679Z,4.20
2022-08-05T15:38:41.789Z,4.10
2022-08-05T15:41:21.973Z,4.30
2022-08-05T15:43:55.405Z,4.10
2022-08-05T15:46:24.872Z,4.60
2022-08-05T15:49:01.035Z,4.60
2022-08-05T15:52:09.933Z,4.50
2022-08-05T15:54:34.891Z,4.70
2022-08-05T15:57:07.295Z,4.40
2022-08-05T15:59:36.616Z,4.80
2022-08-05T16:02:09.601Z,4.10
2022-08-05T16:04:43.948Z,4.80
2022-08-05T16:07:13.342Z,5.30
2022-08-05T16:09:43.595Z,4.80
2022-08-05T16:12:12.270Z,4.60
2022-08-05T16:14:41.141Z,4.70
2022-08-05T16:17:10.133Z,4.60
2022-08-05T16:20:04.800Z,4.40
2022-08-05T16:22:34.395Z,4.40
2022-08-05T16:25:05.436Z,4.60
2022-08-05T16:28:00.362Z,4.50
2022-08-05T16:30:28.774Z,4.20
2022-08-05T16:32:59.028Z,4.90
2022-08-05T16:35:32.429Z,4.50
2022-08-05T16:38:15.151Z,4.30
2022-08-05T16:40:51.858Z,4.50
2022-08-05T16:43:25.824Z,4.40
2022-08-05T16:46:03.987Z,4.60
2022-08-05T16:48:38.577Z,4.40
2022-08-05T16:51:09.143Z,4.70
2022-08-05T16:54:02.457Z,5.00
2022-08-05T16:56:30.837Z,4.70
2022-08-05T16:59:07.609Z,5.50
2022-08-05T17:01:53.996Z,4.60
2022-08-05T17:04:26.113Z,4.50
2022-08-05T17:07:01.828Z,4.40
2022-08-05T17:09:38.865Z,4.90
2022-08-05T17:12:22.606Z,4.60
2022-08-05T17:15:09.376Z,5.00
2022-08-05T17:17:42.157Z,4.90
2022-08-05T17:20:14.529Z,4.90
2022-08-05T17:22:45.243Z,5.10
2022-08-05T17:25:40.170Z,4.70
2022-08-05T17:28:09.973Z,5.20
2022-08-05T17:30:50.322Z,5.00
2022-08-05T17:33:20.813Z,5.10
2022-08-05T17:36:08.110Z,4.70
2022-08-05T17:38:37.534Z,5.00
2022-08-05T17:41:11.663Z,6.10
2022-08-05T17:43:57.304Z,5.30
2022-08-05T17:46:26.294Z,5.90
2022-08-05T17:48:55.433Z,5.30
2022-08-05T17:51:23.721Z,5.80
2022-08-05T17:53:55.045Z,5.80
2022-08-05T17:56:23.319Z,6.60
2022-08-05T17:58:56.887Z,6.30
2022-08-05T18:01:25.209Z,6.30
2022-08-05T18:03:59.666Z,7.00
2022-08-05T18:06:32.742Z,6.90
2022-08-05T18:09:03.701Z,7.50
2022-08-05T18:11:33.406Z,7.80
2022-08-05T18:14:06.808Z,7.80
2022-08-05T18:16:51.116Z,7.70
2022-08-05T18:19:22.777Z,9.50
2022-08-05T18:22:09.801Z,9.20
2022-08-05T18:24:40.647Z,9.10
2022-08-05T18:27:12.482Z,10.10
2022-08-05T18:29:53.477Z,9.10
2022-08-05T18:32:28.164Z,10.30
2022-08-05T18:34:57.931Z,14.20
2022-08-05T18:37:34.481Z,20.60
2022-08-05T18:41:50.239Z,18.40
2022-08-05T18:42:58.871Z,19.30
2022-08-05T18:45:41.579Z,20.40
2022-08-05T18:48:12.037Z,20.20
2022-08-05T18:52:05.669Z,18.90
2022-08-05T18:54:07.064Z,19.20
2022-08-05T18:56:38.088Z,18.00
2022-08-05T18:59:42.731Z,16.00
2022-08-05T19:01:58.018Z,16.10
2022-08-05T19:04:27.554Z,14.00
2022-08-05T19:06:56.121Z,13.20
2022-08-05T19:09:24.400Z,14.10
2022-08-05T19:12:00.362Z,13.50
2022-08-05T19:14:59.182Z,12.30
2022-08-05T19:17:19.420Z,13.80
2022-08-05T19:19:48.538Z,15.20
2022-08-05T19:22:17.741Z,18.00
2022-08-05T19:24:56.008Z,20.90
2022-08-05T19:27:30.282Z,26.40
2022-08-05T19:29:58.879Z,25.90
2022-08-05T19:32:27.878Z,26.00
2022-08-05T19:34:59.906Z,22.70
2022-08-05T19:38:04.520Z,18.80
2022-08-05T19:40:24.106Z,19.00
2022-08-05T19:43:04.618Z,17.60
2022-08-05T19:45:36.900Z,17.00
2022-08-05T19:48:06.422Z,15.70
2022-08-05T19:50:35.434Z,15.50
2022-08-05T19:53:10.314Z,16.60
2022-08-05T19:56:15.347Z,15.30
2022-08-05T19:58:29.747Z,15.70
2022-08-05T20:00:58.942Z,15.60
2022-08-05T20:03:27.562Z,14.30
2022-08-05T20:06:15.552Z,14.50
2022-08-05T20:08:47.350Z,13.50
2022-08-05T20:11:19.494Z,14.10
2022-08-05T20:13:54.862Z,13.40
2022-08-05T20:16:36.308Z,13.10
2022-08-05T20:19:05.872Z,14.00
2022-08-05T20:21:35.130Z,16.60
2022-08-05T20:24:07.678Z,17.80
2022-08-05T20:26:39.950Z,20.60
2022-08-05T20:29:26.463Z,26.20
2022-08-05T20:31:58.262Z,23.30
2022-08-05T20:34:28.338Z,22.20
2022-08-05T20:36:56.687Z,21.70
2022-08-05T20:39:25.093Z,22.00
2022-08-05T20:42:05.324Z,20.80
2022-08-05T20:44:37.940Z,20.70
2022-08-05T20:47:07.589Z,20.50
2022-08-05T20:49:39.569Z,20.40
2022-08-05T20:52:10.630Z,19.30
2022-08-05T20:54:42.819Z,20.50
2022-08-05T20:57:43.530Z,17.80
2022-08-05T21:00:39.993Z,15.40
2022-08-05T21:03:07.202Z,14.60
2022-08-05T21:05:53.970Z,15.30
2022-08-05T21:08:26.490Z,14.00
2022-08-05T21:10:58.454Z,14.60
2022-08-05T21:13:47.976Z,14.70
2022-08-05T21:16:20.694Z,13.60
2022-08-05T21:18:51.395Z,13.00
2022-08-05T21:21:19.716Z,12.90
2022-08-05T21:23:52.881Z,14.00
2022-08-05T21:26:21.553Z,13.10
2022-08-05T21:28:54.731Z,13.40
2022-08-05T21:31:41.650Z,13.60
2022-08-05T21:34:10.552Z,13.20
2022-08-05T21:36:42.452Z,14.10
2022-08-05T21:39:17.039Z,13.20
2022-08-05T21:42:01.065Z,14.10
2022-08-05T21:44:31.821Z,13.70
2022-08-05T21:47:00.931Z,14.30
2022-08-05T21:49:48.095Z,13.80
2022-08-05T21:52:27.976Z,14.90
2022-08-05T21:55:06.516Z,13.30
2022-08-05T21:57:36.459Z,14.50
2022-08-05T22:00:13.017Z,13.80
2022-08-05T22:02:42.921Z,13.90
2022-08-05T22:05:12.457Z,14.20
2022-08-05T22:07:59.470Z,14.90
2022-08-05T22:10:31.061Z,14.40
2022-08-05T22:14:05.099Z,14.60
2022-08-05T22:16:00.595Z,14.90
2022-08-05T22:18:33.053Z,14.80
2022-08-05T22:21:04.688Z,14.90
2022-08-05T22:24:02.792Z,14.40
2022-08-05T22:26:50.947Z,14.80
2022-08-05T22:29:26.567Z,14.90
2022-08-05T22:32:02.665Z,14.40
2022-08-05T22:34:32.846Z,14.20
2022-08-05T22:37:03.932Z,14.70
2022-08-05T22:39:34.784Z,14.60
2022-08-05T22:42:12.643Z,13.30
2022-08-05T22:44:53.670Z,14.60
2022-08-05T22:47:30.127Z,14.70
2022-08-05T22:50:19.552Z,13.90
2022-08-05T22:52:50.186Z,14.00
2022-08-05T22:55:21.485Z,16.30
2022-08-05T22:57:51.400Z,15.20
2022-08-05T23:00:22.127Z,14.50
2022-08-05T23:02:52.348Z,15.10
2022-08-05T23:05:22.469Z,14.50
2022-08-05T23:07:52.262Z,14.10
2022-08-05T23:10:23.893Z,13.60
2022-08-05T23:12:54.367Z,13.80
2022-08-05T23:15:27.086Z,14.60
2022-08-05T23:18:02.063Z,13.80
2022-08-05T23:20:33.418Z,13.70
2022-08-05T23:23:08.572Z,14.10
2022-08-05T23:25:55.015Z,13.30
2022-08-05T23:28:27.619Z,13.90
2022-08-05T23:31:15.839Z,12.90
2022-08-05T23:34:04.396Z,13.10
2022-08-05T23:36:40.217Z,14.10
2022-08-05T23:39:17.554Z,13.20
2022-08-05T23:42:00.595Z,13.60
2022-08-05T23:44:31.369Z,12.80
2022-08-05T23:47:15.185Z,14.10
2022-08-05T23:49:45.946Z,14.00
2022-08-05T23:52:27.772Z,13.40
2022-08-05T23:54:58.391Z,13.90
2022-08-05T23:57:28.349Z,14.10
